This is the latest recevied weather packets stored in our database for station/object G0TGD-10. If no packets are shown the sender has not sent any weather packets the latest 10 day(s).
| Time | Temp. | Humidity | Pressure | Rain* | Wind** | Luminosity | Snow |
|---|---|---|---|---|---|---|---|
| 1777306806 | 16.67° C | 48% | 1022.9 hPa | - | - | - | - |
| 1777305905 | 17.22° C | 47% | 1023.1 hPa | - | - | - | - |
| 1777305005 | 18.33° C | 45% | 1022.8 hPa | - | - | - | - |
| 1777304105 | 21.11° C | 42% | 1022.5 hPa | - | - | - | - |
| 1777303205 | 22.78° C | 41% | 1022.3 hPa | - | - | - | - |
| 1777302305 | 23.33° C | 40% | 1022.4 hPa | - | - | - | - |
| 1777301405 | 25.56° C | 39% | 1022.4 hPa | - | - | - | - |
| 1777300505 | 24.44° C | 41% | 1022.6 hPa | - | - | - | - |
| 1777299605 | 24.44° C | 41% | 1022.7 hPa | - | - | - | - |
| 1777298705 | 26.67° C | 40% | 1022.7 hPa | - | - | - | - |
| 1777297805 | 26.67° C | 41% | 1022.8 hPa | - | - | - | - |
| 1777296905 | 25° C | 42% | 1023.1 hPa | - | - | - | - |
| 1777296005 | 25° C | 42% | 1023.2 hPa | - | - | - | - |
| 1777295104 | 26.11° C | 42% | 1023.3 hPa | - | - | - | - |
| 1777294204 | 22.78° C | 44% | 1023.3 hPa | - | - | - | - |
| 1777293304 | 23.33° C | 43% | 1023.5 hPa | - | - | - | - |
| 1777292404 | 26.11° C | 42% | 1023.5 hPa | - | - | - | - |
| 1777291504 | 30.56° C | 39% | 1023.5 hPa | - | - | - | - |
| 1777290604 | 31.11° C | 39% | 1023.5 hPa | - | - | - | - |
| 1777289704 | 29.44° C | 40% | 1023.7 hPa | - | - | - | - |
| 1777288804 | 30° C | 40% | 1023.8 hPa | - | - | - | - |
| 1777287904 | 29.44° C | 41% | 1023.9 hPa | - | - | - | - |
| 1777287003 | 27.78° C | 42% | 1023.9 hPa | - | - | - | - |
| 1777286103 | 26.67° C | 43% | 1023.8 hPa | - | - | - | - |
| 1777285203 | 26.67° C | 43% | 1023.9 hPa | - | - | - | - |
* Rain since midnight (hover to see other rain measurements)
** Current wind speed in m/s (hover to see current wind gust speed)